sensor_id;sensor_type;location;lat;lon;timestamp;temperature;humidity
6738;DHT22;3406;49.902;8.596;2022-12-17T00:02:21;-6.10;80.40
6738;DHT22;3406;49.902;8.596;2022-12-17T00:05:06;-6.10;80.40
6738;DHT22;3406;49.902;8.596;2022-12-17T00:08:01;-6.10;80.40
6738;DHT22;3406;49.902;8.596;2022-12-17T00:10:47;-6.20;80.30
6738;DHT22;3406;49.902;8.596;2022-12-17T00:13:31;-6.20;80.30
6738;DHT22;3406;49.902;8.596;2022-12-17T00:16:15;-6.20;80.30
6738;DHT22;3406;49.902;8.596;2022-12-17T00:18:59;-6.30;80.20
6738;DHT22;3406;49.902;8.596;2022-12-17T00:21:44;-6.30;80.20
6738;DHT22;3406;49.902;8.596;2022-12-17T00:24:28;-6.30;80.10
6738;DHT22;3406;49.902;8.596;2022-12-17T00:27:13;-6.40;80.00
6738;DHT22;3406;49.902;8.596;2022-12-17T00:29:57;-6.40;80.00
6738;DHT22;3406;49.902;8.596;2022-12-17T00:32:42;-6.50;80.00
6738;DHT22;3406;49.902;8.596;2022-12-17T00:35:26;-6.50;79.90
6738;DHT22;3406;49.902;8.596;2022-12-17T00:38:14;-6.50;79.90
6738;DHT22;3406;49.902;8.596;2022-12-17T00:40:58;-6.60;79.80
6738;DHT22;3406;49.902;8.596;2022-12-17T00:43:44;-6.60;79.90
6738;DHT22;3406;49.902;8.596;2022-12-17T00:46:28;-6.60;79.90
6738;DHT22;3406;49.902;8.596;2022-12-17T00:49:12;-6.60;79.90
6738;DHT22;3406;49.902;8.596;2022-12-17T00:51:56;-6.70;79.80
6738;DHT22;3406;49.902;8.596;2022-12-17T00:54:40;-6.70;79.80
6738;DHT22;3406;49.902;8.596;2022-12-17T00:57:24;-6.70;79.80
6738;DHT22;3406;49.902;8.596;2022-12-17T01:00:11;-6.70;79.80
6738;DHT22;3406;49.902;8.596;2022-12-17T01:03:03;-6.80;79.80
6738;DHT22;3406;49.902;8.596;2022-12-17T01:05:48;-6.80;79.80
6738;DHT22;3406;49.902;8.596;2022-12-17T01:08:32;-6.80;79.80
6738;DHT22;3406;49.902;8.596;2022-12-17T01:11:16;-6.80;79.90
6738;DHT22;3406;49.902;8.596;2022-12-17T01:14:00;-6.80;79.90
6738;DHT22;3406;49.902;8.596;2022-12-17T01:16:46;-6.80;79.80
6738;DHT22;3406;49.902;8.596;2022-12-17T01:19:30;-6.90;79.70
6738;DHT22;3406;49.902;8.596;2022-12-17T01:22:14;-6.90;79.70
6738;DHT22;3406;49.902;8.596;2022-12-17T01:24:59;-6.90;79.60
6738;DHT22;3406;49.902;8.596;2022-12-17T01:27:46;-6.90;79.60
6738;DHT22;3406;49.902;8.596;2022-12-17T01:30:30;-7.00;79.40
6738;DHT22;3406;49.902;8.596;2022-12-17T01:33:16;-7.00;79.40
6738;DHT22;3406;49.902;8.596;2022-12-17T01:36:00;-7.10;79.30
6738;DHT22;3406;49.902;8.596;2022-12-17T01:38:44;-7.10;79.30
6738;DHT22;3406;49.902;8.596;2022-12-17T01:41:28;-7.10;79.40
6738;DHT22;3406;49.902;8.596;2022-12-17T01:47:39;-7.10;79.40
6738;DHT22;3406;49.902;8.596;2022-12-17T01:50:29;-7.20;79.30
6738;DHT22;3406;49.902;8.596;2022-12-17T01:53:16;-7.20;79.30
6738;DHT22;3406;49.902;8.596;2022-12-17T01:56:02;-7.20;79.20
6738;DHT22;3406;49.902;8.596;2022-12-17T01:58:47;-7.20;79.20
6738;DHT22;3406;49.902;8.596;2022-12-17T02:01:32;-7.20;79.20
6738;DHT22;3406;49.902;8.596;2022-12-17T02:04:16;-7.30;79.10
6738;DHT22;3406;49.902;8.596;2022-12-17T02:10:16;-7.30;79.20
6738;DHT22;3406;49.902;8.596;2022-12-17T02:13:09;-7.30;79.10
6738;DHT22;3406;49.902;8.596;2022-12-17T02:15:59;-7.30;79.00
6738;DHT22;3406;49.902;8.596;2022-12-17T02:21:12;-7.30;79.00
6738;DHT22;3406;49.902;8.596;2022-12-17T02:24:06;-7.30;79.70
6738;DHT22;3406;49.902;8.596;2022-12-17T02:26:57;-7.30;79.10
6738;DHT22;3406;49.902;8.596;2022-12-17T02:29:59;-7.40;78.90
6738;DHT22;3406;49.902;8.596;2022-12-17T02:32:57;-7.40;78.80
6738;DHT22;3406;49.902;8.596;2022-12-17T02:35:45;-7.40;78.90
6738;DHT22;3406;49.902;8.596;2022-12-17T02:38:32;-7.40;78.90
6738;DHT22;3406;49.902;8.596;2022-12-17T02:41:20;-7.40;78.80
6738;DHT22;3406;49.902;8.596;2022-12-17T02:44:08;-7.40;78.80
6738;DHT22;3406;49.902;8.596;2022-12-17T02:46:53;-7.40;78.90
6738;DHT22;3406;49.902;8.596;2022-12-17T02:49:39;-7.40;79.00
6738;DHT22;3406;49.902;8.596;2022-12-17T02:52:23;-7.40;79.00
6738;DHT22;3406;49.902;8.596;2022-12-17T02:55:09;-7.40;79.10
6738;DHT22;3406;49.902;8.596;2022-12-17T02:57:53;-7.30;79.30
6738;DHT22;3406;49.902;8.596;2022-12-17T03:00:39;-7.30;79.20
6738;DHT22;3406;49.902;8.596;2022-12-17T03:03:23;-7.20;79.30
6738;DHT22;3406;49.902;8.596;2022-12-17T03:06:07;-7.20;79.30
6738;DHT22;3406;49.902;8.596;2022-12-17T03:08:52;-7.20;79.20
6738;DHT22;3406;49.902;8.596;2022-12-17T03:11:36;-7.20;79.20
6738;DHT22;3406;49.902;8.596;2022-12-17T03:14:20;-7.20;79.20
6738;DHT22;3406;49.902;8.596;2022-12-17T03:17:05;-7.20;79.20
6738;DHT22;3406;49.902;8.596;2022-12-17T03:19:49;-7.20;79.30
6738;DHT22;3406;49.902;8.596;2022-12-17T03:22:33;-7.20;79.20
6738;DHT22;3406;49.902;8.596;2022-12-17T03:25:17;-7.20;79.10
6738;DHT22;3406;49.902;8.596;2022-12-17T03:28:03;-7.20;79.00
6738;DHT22;3406;49.902;8.596;2022-12-17T03:30:48;-7.30;79.00
6738;DHT22;3406;49.902;8.596;2022-12-17T03:33:33;-7.30;79.00
6738;DHT22;3406;49.902;8.596;2022-12-17T03:36:17;-7.30;79.10
6738;DHT22;3406;49.902;8.596;2022-12-17T03:39:01;-7.30;79.50
6738;DHT22;3406;49.902;8.596;2022-12-17T03:41:46;-7.30;79.40
6738;DHT22;3406;49.902;8.596;2022-12-17T03:44:32;-7.30;79.50
6738;DHT22;3406;49.902;8.596;2022-12-17T03:47:16;-7.30;79.60
6738;DHT22;3406;49.902;8.596;2022-12-17T03:50:02;-7.30;79.50
6738;DHT22;3406;49.902;8.596;2022-12-17T03:52:46;-7.30;79.30
6738;DHT22;3406;49.902;8.596;2022-12-17T03:55:30;-7.40;79.20
6738;DHT22;3406;49.902;8.596;2022-12-17T03:58:14;-7.40;79.10
6738;DHT22;3406;49.902;8.596;2022-12-17T04:00:58;-7.40;79.10
6738;DHT22;3406;49.902;8.596;2022-12-17T04:03:42;-7.50;78.90
6738;DHT22;3406;49.902;8.596;2022-12-17T04:06:28;-7.50;78.90
6738;DHT22;3406;49.902;8.596;2022-12-17T04:09:12;-7.60;78.80
6738;DHT22;3406;49.902;8.596;2022-12-17T04:11:56;-7.60;78.90
6738;DHT22;3406;49.902;8.596;2022-12-17T04:14:55;-7.60;78.90
6738;DHT22;3406;49.902;8.596;2022-12-17T04:17:39;-7.60;78.90
6738;DHT22;3406;49.902;8.596;2022-12-17T04:20:23;-7.60;78.80
6738;DHT22;3406;49.902;8.596;2022-12-17T04:23:09;-7.60;78.80
6738;DHT22;3406;49.902;8.596;2022-12-17T04:25:53;-7.60;78.80
6738;DHT22;3406;49.902;8.596;2022-12-17T04:28:37;-7.60;78.70
6738;DHT22;3406;49.902;8.596;2022-12-17T04:31:21;-7.60;78.80
6738;DHT22;3406;49.902;8.596;2022-12-17T04:34:05;-7.60;78.80
6738;DHT22;3406;49.902;8.596;2022-12-17T04:36:49;-7.70;78.70
6738;DHT22;3406;49.902;8.596;2022-12-17T04:39:34;-7.70;78.70
6738;DHT22;3406;49.902;8.596;2022-12-17T04:42:18;-7.70;78.70
6738;DHT22;3406;49.902;8.596;2022-12-17T04:45:03;-7.70;78.70
6738;DHT22;3406;49.902;8.596;2022-12-17T04:48:00;-7.70;78.70
6738;DHT22;3406;49.902;8.596;2022-12-17T04:50:44;-7.70;78.70
6738;DHT22;3406;49.902;8.596;2022-12-17T04:53:28;-7.70;78.70
6738;DHT22;3406;49.902;8.596;2022-12-17T04:56:14;-7.70;78.70
6738;DHT22;3406;49.902;8.596;2022-12-17T04:58:58;-7.70;78.60
6738;DHT22;3406;49.902;8.596;2022-12-17T05:01:43;-7.80;78.50
6738;DHT22;3406;49.902;8.596;2022-12-17T05:04:27;-7.70;78.70
6738;DHT22;3406;49.902;8.596;2022-12-17T05:07:11;-7.70;78.70
6738;DHT22;3406;49.902;8.596;2022-12-17T05:09:55;-7.80;78.50
6738;DHT22;3406;49.902;8.596;2022-12-17T05:12:55;-7.80;78.60
6738;DHT22;3406;49.902;8.596;2022-12-17T05:15:40;-7.80;78.50
6738;DHT22;3406;49.902;8.596;2022-12-17T05:18:24;-7.80;78.50
6738;DHT22;3406;49.902;8.596;2022-12-17T05:21:08;-7.80;79.10
6738;DHT22;3406;49.902;8.596;2022-12-17T05:23:52;-7.80;78.50
6738;DHT22;3406;49.902;8.596;2022-12-17T05:26:37;-7.80;78.50
6738;DHT22;3406;49.902;8.596;2022-12-17T05:29:22;-7.80;78.50
6738;DHT22;3406;49.902;8.596;2022-12-17T05:32:07;-7.80;78.50
6738;DHT22;3406;49.902;8.596;2022-12-17T05:34:51;-7.80;78.40
6738;DHT22;3406;49.902;8.596;2022-12-17T05:37:35;-7.80;78.50
6738;DHT22;3406;49.902;8.596;2022-12-17T05:40:19;-7.80;78.50
6738;DHT22;3406;49.902;8.596;2022-12-17T05:43:04;-7.80;78.50
6738;DHT22;3406;49.902;8.596;2022-12-17T05:45:50;-7.90;78.30
6738;DHT22;3406;49.902;8.596;2022-12-17T05:48:35;-7.90;78.30
6738;DHT22;3406;49.902;8.596;2022-12-17T05:51:34;-7.90;78.30
6738;DHT22;3406;49.902;8.596;2022-12-17T05:54:18;-7.90;78.30
6738;DHT22;3406;49.902;8.596;2022-12-17T05:57:02;-7.90;78.30
6738;DHT22;3406;49.902;8.596;2022-12-17T05:59:47;-7.90;78.30
6738;DHT22;3406;49.902;8.596;2022-12-17T06:02:32;-7.90;78.30
6738;DHT22;3406;49.902;8.596;2022-12-17T06:05:16;-7.90;78.30
6738;DHT22;3406;49.902;8.596;2022-12-17T06:08:02;-8.00;78.10
6738;DHT22;3406;49.902;8.596;2022-12-17T06:10:46;-8.00;78.10
6738;DHT22;3406;49.902;8.596;2022-12-17T06:13:30;-8.00;78.20
6738;DHT22;3406;49.902;8.596;2022-12-17T06:16:14;-8.00;78.20
6738;DHT22;3406;49.902;8.596;2022-12-17T06:19:00;-8.00;78.20
6738;DHT22;3406;49.902;8.596;2022-12-17T06:21:44;-8.00;78.20
6738;DHT22;3406;49.902;8.596;2022-12-17T06:24:28;-8.00;78.20
6738;DHT22;3406;49.902;8.596;2022-12-17T06:27:12;-8.10;78.00
6738;DHT22;3406;49.902;8.596;2022-12-17T06:29:56;-8.10;78.00
6738;DHT22;3406;49.902;8.596;2022-12-17T06:32:40;-8.10;78.00
6738;DHT22;3406;49.902;8.596;2022-12-17T06:35:26;-8.10;78.00
6738;DHT22;3406;49.902;8.596;2022-12-17T06:38:10;-8.10;78.00
6738;DHT22;3406;49.902;8.596;2022-12-17T06:40:54;-8.10;78.00
6738;DHT22;3406;49.902;8.596;2022-12-17T06:43:38;-8.10;78.10
6738;DHT22;3406;49.902;8.596;2022-12-17T06:46:22;-8.10;78.10
6738;DHT22;3406;49.902;8.596;2022-12-17T06:49:06;-8.20;78.00
6738;DHT22;3406;49.902;8.596;2022-12-17T06:51:52;-8.20;78.00
6738;DHT22;3406;49.902;8.596;2022-12-17T06:54:36;-8.20;78.00
6738;DHT22;3406;49.902;8.596;2022-12-17T06:57:20;-8.10;78.10
6738;DHT22;3406;49.902;8.596;2022-12-17T07:00:15;-8.10;78.10
6738;DHT22;3406;49.902;8.596;2022-12-17T07:03:03;-8.10;78.00
6738;DHT22;3406;49.902;8.596;2022-12-17T07:05:48;-8.20;77.80
6738;DHT22;3406;49.902;8.596;2022-12-17T07:08:33;-8.20;77.80
6738;DHT22;3406;49.902;8.596;2022-12-17T07:11:17;-8.20;77.90
6738;DHT22;3406;49.902;8.596;2022-12-17T07:14:01;-8.20;77.90
6738;DHT22;3406;49.902;8.596;2022-12-17T07:16:46;-8.20;78.00
6738;DHT22;3406;49.902;8.596;2022-12-17T07:19:30;-8.20;77.90
6738;DHT22;3406;49.902;8.596;2022-12-17T07:22:14;-8.20;78.00
6738;DHT22;3406;49.902;8.596;2022-12-17T07:24:59;-8.10;78.10
6738;DHT22;3406;49.902;8.596;2022-12-17T07:27:51;-8.10;78.20
6738;DHT22;3406;49.902;8.596;2022-12-17T07:30:36;-8.00;78.40
6738;DHT22;3406;49.902;8.596;2022-12-17T07:33:20;-8.00;78.40
6738;DHT22;3406;49.902;8.596;2022-12-17T07:36:04;-7.90;78.60
6738;DHT22;3406;49.902;8.596;2022-12-17T07:38:48;-7.80;78.70
6738;DHT22;3406;49.902;8.596;2022-12-17T07:41:34;-7.80;78.60
6738;DHT22;3406;49.902;8.596;2022-12-17T07:44:18;-7.80;78.50
6738;DHT22;3406;49.902;8.596;2022-12-17T07:47:02;-7.80;78.50
6738;DHT22;3406;49.902;8.596;2022-12-17T07:49:46;-7.70;78.60
6738;DHT22;3406;49.902;8.596;2022-12-17T07:52:30;-7.80;78.50
6738;DHT22;3406;49.902;8.596;2022-12-17T07:55:15;-7.70;78.70
6738;DHT22;3406;49.902;8.596;2022-12-17T07:58:02;-7.70;78.80
6738;DHT22;3406;49.902;8.596;2022-12-17T08:00:46;-7.70;78.80
6738;DHT22;3406;49.902;8.596;2022-12-17T08:03:30;-7.70;78.90
6738;DHT22;3406;49.902;8.596;2022-12-17T08:06:26;-7.60;79.00
6738;DHT22;3406;49.902;8.596;2022-12-17T08:09:10;-7.60;79.00
6738;DHT22;3406;49.902;8.596;2022-12-17T08:11:54;-7.50;79.30
6738;DHT22;3406;49.902;8.596;2022-12-17T08:14:40;-7.40;79.30
6738;DHT22;3406;49.902;8.596;2022-12-17T08:17:24;-7.40;79.20
6738;DHT22;3406;49.902;8.596;2022-12-17T08:20:09;-7.30;79.70
6738;DHT22;3406;49.902;8.596;2022-12-17T08:23:00;-7.20;79.60
6738;DHT22;3406;49.902;8.596;2022-12-17T08:25:44;-7.20;79.30
6738;DHT22;3406;49.902;8.596;2022-12-17T08:28:28;-7.30;79.00
6738;DHT22;3406;49.902;8.596;2022-12-17T08:31:14;-7.30;79.00
6738;DHT22;3406;49.902;8.596;2022-12-17T08:34:00;-7.40;79.00
6738;DHT22;3406;49.902;8.596;2022-12-17T08:36:44;-7.50;79.20
6738;DHT22;3406;49.902;8.596;2022-12-17T08:39:28;-7.40;79.60
6738;DHT22;3406;49.902;8.596;2022-12-17T08:42:12;-7.40;79.80
6738;DHT22;3406;49.902;8.596;2022-12-17T08:44:56;-7.30;80.10
6738;DHT22;3406;49.902;8.596;2022-12-17T08:47:47;-7.20;80.20
6738;DHT22;3406;49.902;8.596;2022-12-17T08:50:32;-7.10;80.30
6738;DHT22;3406;49.902;8.596;2022-12-17T08:53:16;-7.10;80.40
6738;DHT22;3406;49.902;8.596;2022-12-17T08:56:00;-7.00;80.60
6738;DHT22;3406;49.902;8.596;2022-12-17T08:58:44;-6.80;80.80
6738;DHT22;3406;49.902;8.596;2022-12-17T09:01:28;-6.80;80.80
6738;DHT22;3406;49.902;8.596;2022-12-17T09:04:14;-6.70;80.80
6738;DHT22;3406;49.902;8.596;2022-12-17T09:06:58;-6.70;80.60
6738;DHT22;3406;49.902;8.596;2022-12-17T09:09:42;-6.60;80.80
6738;DHT22;3406;49.902;8.596;2022-12-17T09:12:27;-6.60;81.00
6738;DHT22;3406;49.902;8.596;2022-12-17T09:15:11;-6.50;81.10
6738;DHT22;3406;49.902;8.596;2022-12-17T09:17:55;-6.40;81.30
6738;DHT22;3406;49.902;8.596;2022-12-17T09:20:40;-6.30;81.40
6738;DHT22;3406;49.902;8.596;2022-12-17T09:23:25;-6.30;81.40
6738;DHT22;3406;49.902;8.596;2022-12-17T09:26:09;-6.20;82.10
6738;DHT22;3406;49.902;8.596;2022-12-17T09:28:53;-6.20;81.40
6738;DHT22;3406;49.902;8.596;2022-12-17T09:31:37;-6.10;81.50
6738;DHT22;3406;49.902;8.596;2022-12-17T09:34:21;-6.10;81.80
6738;DHT22;3406;49.902;8.596;2022-12-17T09:37:07;-5.90;82.10
6738;DHT22;3406;49.902;8.596;2022-12-17T09:39:51;-5.80;82.30
6738;DHT22;3406;49.902;8.596;2022-12-17T09:42:40;-5.80;82.30
6738;DHT22;3406;49.902;8.596;2022-12-17T09:45:30;-5.70;82.30
6738;DHT22;3406;49.902;8.596;2022-12-17T09:48:21;-5.60;82.50
6738;DHT22;3406;49.902;8.596;2022-12-17T09:51:20;-5.50;82.70
6738;DHT22;3406;49.902;8.596;2022-12-17T09:54:19;-5.40;82.70
6738;DHT22;3406;49.902;8.596;2022-12-17T09:57:05;-5.30;82.70
6738;DHT22;3406;49.902;8.596;2022-12-17T09:59:53;-5.20;82.80
6738;DHT22;3406;49.902;8.596;2022-12-17T10:02:52;-5.10;82.80
6738;DHT22;3406;49.902;8.596;2022-12-17T10:05:36;-5.10;83.00
6738;DHT22;3406;49.902;8.596;2022-12-17T10:08:20;-5.00;83.10
6738;DHT22;3406;49.902;8.596;2022-12-17T10:11:17;-4.90;83.20
6738;DHT22;3406;49.902;8.596;2022-12-17T10:14:03;-4.80;83.30
6738;DHT22;3406;49.902;8.596;2022-12-17T10:16:47;-4.70;83.30
6738;DHT22;3406;49.902;8.596;2022-12-17T10:19:35;-4.60;83.50
6738;DHT22;3406;49.902;8.596;2022-12-17T10:22:21;-4.50;83.60
6738;DHT22;3406;49.902;8.596;2022-12-17T10:25:08;-4.40;83.50
6738;DHT22;3406;49.902;8.596;2022-12-17T10:28:01;-4.40;83.30
6738;DHT22;3406;49.902;8.596;2022-12-17T10:30:46;-4.40;83.20
6738;DHT22;3406;49.902;8.596;2022-12-17T10:33:36;-4.40;83.40
6738;DHT22;3406;49.902;8.596;2022-12-17T10:36:24;-4.30;83.60
6738;DHT22;3406;49.902;8.596;2022-12-17T10:39:24;-4.20;83.80
6738;DHT22;3406;49.902;8.596;2022-12-17T10:42:18;-4.20;83.90
6738;DHT22;3406;49.902;8.596;2022-12-17T10:45:20;-4.10;83.90
6738;DHT22;3406;49.902;8.596;2022-12-17T10:48:18;-4.00;84.00
6738;DHT22;3406;49.902;8.596;2022-12-17T10:51:04;-3.90;84.10
6738;DHT22;3406;49.902;8.596;2022-12-17T10:53:50;-3.90;83.90
6738;DHT22;3406;49.902;8.596;2022-12-17T10:56:35;-3.90;84.00
6738;DHT22;3406;49.902;8.596;2022-12-17T10:59:30;-3.80;84.10
6738;DHT22;3406;49.902;8.596;2022-12-17T11:02:19;-3.80;84.20
6738;DHT22;3406;49.902;8.596;2022-12-17T11:05:12;-3.70;84.60
6738;DHT22;3406;49.902;8.596;2022-12-17T11:07:58;-3.50;84.50
6738;DHT22;3406;49.902;8.596;2022-12-17T11:10:44;-3.60;84.00
6738;DHT22;3406;49.902;8.596;2022-12-17T11:13:31;-3.60;84.00
6738;DHT22;3406;49.902;8.596;2022-12-17T11:16:22;-3.70;84.00
6738;DHT22;3406;49.902;8.596;2022-12-17T11:19:31;-3.70;84.10
6738;DHT22;3406;49.902;8.596;2022-12-17T11:22:22;-3.70;84.00
6738;DHT22;3406;49.902;8.596;2022-12-17T11:25:26;-3.70;84.20
6738;DHT22;3406;49.902;8.596;2022-12-17T11:28:16;-3.70;84.20
6738;DHT22;3406;49.902;8.596;2022-12-17T11:31:14;-3.70;84.30
6738;DHT22;3406;49.902;8.596;2022-12-17T11:34:08;-3.70;84.30
6738;DHT22;3406;49.902;8.596;2022-12-17T11:37:01;-3.70;84.40
6738;DHT22;3406;49.902;8.596;2022-12-17T11:39:55;-3.70;84.30
6738;DHT22;3406;49.902;8.596;2022-12-17T11:42:49;-3.70;84.30
6738;DHT22;3406;49.902;8.596;2022-12-17T11:45:38;-3.70;84.80
6738;DHT22;3406;49.902;8.596;2022-12-17T11:48:30;-3.60;85.10
6738;DHT22;3406;49.902;8.596;2022-12-17T11:51:33;-3.60;85.10
6738;DHT22;3406;49.902;8.596;2022-12-17T11:54:27;-3.60;85.00
6738;DHT22;3406;49.902;8.596;2022-12-17T11:57:19;-3.50;85.10
6738;DHT22;3406;49.902;8.596;2022-12-17T12:00:14;-3.50;85.20
6738;DHT22;3406;49.902;8.596;2022-12-17T12:03:10;-3.40;85.20
6738;DHT22;3406;49.902;8.596;2022-12-17T12:06:02;-3.50;84.80
6738;DHT22;3406;49.902;8.596;2022-12-17T12:08:56;-3.60;84.90
6738;DHT22;3406;49.902;8.596;2022-12-17T12:11:52;-3.80;84.70
6738;DHT22;3406;49.902;8.596;2022-12-17T12:14:46;-3.90;84.90
6738;DHT22;3406;49.902;8.596;2022-12-17T12:17:40;-4.10;85.30
6738;DHT22;3406;49.902;8.596;2022-12-17T12:20:44;-4.10;86.10
6738;DHT22;3406;49.902;8.596;2022-12-17T12:23:40;-4.00;86.70
6738;DHT22;3406;49.902;8.596;2022-12-17T12:26:32;-3.80;87.00
6738;DHT22;3406;49.902;8.596;2022-12-17T12:29:28;-3.80;86.70
6738;DHT22;3406;49.902;8.596;2022-12-17T12:32:21;-3.80;86.70
6738;DHT22;3406;49.902;8.596;2022-12-17T12:35:14;-3.80;86.60
6738;DHT22;3406;49.902;8.596;2022-12-17T12:37:59;-3.50;89.00
6738;DHT22;3406;49.902;8.596;2022-12-17T12:40:49;-3.10;88.80
6738;DHT22;3406;49.902;8.596;2022-12-17T12:43:37;-3.00;87.60
6738;DHT22;3406;49.902;8.596;2022-12-17T12:46:31;-3.10;86.60
6738;DHT22;3406;49.902;8.596;2022-12-17T12:49:24;-3.20;86.90
6738;DHT22;3406;49.902;8.596;2022-12-17T12:52:10;-3.30;86.90
6738;DHT22;3406;49.902;8.596;2022-12-17T12:54:56;-3.40;87.20
6738;DHT22;3406;49.902;8.596;2022-12-17T12:57:43;-3.30;87.90
6738;DHT22;3406;49.902;8.596;2022-12-17T13:00:39;-3.30;87.50
6738;DHT22;3406;49.902;8.596;2022-12-17T13:03:37;-3.30;87.80
6738;DHT22;3406;49.902;8.596;2022-12-17T13:06:43;-3.30;87.90
6738;DHT22;3406;49.902;8.596;2022-12-17T13:09:20;-3.10;88.00
6738;DHT22;3406;49.902;8.596;2022-12-17T13:11:48;-3.20;87.10
6738;DHT22;3406;49.902;8.596;2022-12-17T13:14:18;-3.30;87.10
6738;DHT22;3406;49.902;8.596;2022-12-17T13:16:52;-3.40;87.00
6738;DHT22;3406;49.902;8.596;2022-12-17T13:19:33;-3.50;87.20
6738;DHT22;3406;49.902;8.596;2022-12-17T13:22:29;-3.50;87.40
6738;DHT22;3406;49.902;8.596;2022-12-17T13:25:13;-3.50;87.60
6738;DHT22;3406;49.902;8.596;2022-12-17T13:27:42;-3.40;88.10
6738;DHT22;3406;49.902;8.596;2022-12-17T13:30:31;-3.30;88.20
6738;DHT22;3406;49.902;8.596;2022-12-17T13:33:17;-3.20;88.30
6738;DHT22;3406;49.902;8.596;2022-12-17T13:35:57;-3.20;88.10
6738;DHT22;3406;49.902;8.596;2022-12-17T13:38:35;-3.10;88.10
6738;DHT22;3406;49.902;8.596;2022-12-17T13:41:07;-3.10;87.80
6738;DHT22;3406;49.902;8.596;2022-12-17T13:43:39;-3.20;87.50
6738;DHT22;3406;49.902;8.596;2022-12-17T13:46:19;-3.20;87.70
6738;DHT22;3406;49.902;8.596;2022-12-17T13:48:52;-3.20;87.80
6738;DHT22;3406;49.902;8.596;2022-12-17T13:51:21;-3.20;88.00
6738;DHT22;3406;49.902;8.596;2022-12-17T13:53:54;-3.20;88.10
6738;DHT22;3406;49.902;8.596;2022-12-17T13:56:22;-3.10;88.30
6738;DHT22;3406;49.902;8.596;2022-12-17T13:58:51;-3.10;88.20
6738;DHT22;3406;49.902;8.596;2022-12-17T14:01:18;-3.10;88.10
6738;DHT22;3406;49.902;8.596;2022-12-17T14:03:48;-3.00;88.20
6738;DHT22;3406;49.902;8.596;2022-12-17T14:06:16;-3.00;88.20
6738;DHT22;3406;49.902;8.596;2022-12-17T14:08:45;-3.00;88.60
6738;DHT22;3406;49.902;8.596;2022-12-17T14:11:12;-3.00;87.90
6738;DHT22;3406;49.902;8.596;2022-12-17T14:13:56;-3.00;88.00
6738;DHT22;3406;49.902;8.596;2022-12-17T14:16:23;-2.90;88.10
6738;DHT22;3406;49.902;8.596;2022-12-17T14:18:54;-2.90;88.00
6738;DHT22;3406;49.902;8.596;2022-12-17T14:21:22;-2.90;88.10
6738;DHT22;3406;49.902;8.596;2022-12-17T14:23:51;-2.90;88.10
6738;DHT22;3406;49.902;8.596;2022-12-17T14:26:18;-2.90;88.10
6738;DHT22;3406;49.902;8.596;2022-12-17T14:28:48;-2.90;88.00
6738;DHT22;3406;49.902;8.596;2022-12-17T14:31:18;-3.00;87.90
6738;DHT22;3406;49.902;8.596;2022-12-17T14:33:46;-3.00;87.80
6738;DHT22;3406;49.902;8.596;2022-12-17T14:36:18;-3.10;87.80
6738;DHT22;3406;49.902;8.596;2022-12-17T14:38:52;-3.10;87.80
6738;DHT22;3406;49.902;8.596;2022-12-17T14:41:20;-3.10;88.00
6738;DHT22;3406;49.902;8.596;2022-12-17T14:44:22;-3.10;88.00
6738;DHT22;3406;49.902;8.596;2022-12-17T14:46:50;-3.20;88.00
6738;DHT22;3406;49.902;8.596;2022-12-17T14:49:20;-3.20;88.00
6738;DHT22;3406;49.902;8.596;2022-12-17T14:51:48;-3.20;87.90
6738;DHT22;3406;49.902;8.596;2022-12-17T14:54:27;-3.20;88.00
6738;DHT22;3406;49.902;8.596;2022-12-17T14:56:56;-3.20;88.20
6738;DHT22;3406;49.902;8.596;2022-12-17T14:59:31;-3.20;88.20
6738;DHT22;3406;49.902;8.596;2022-12-17T15:02:01;-3.20;88.00
6738;DHT22;3406;49.902;8.596;2022-12-17T15:04:30;-3.20;88.10
6738;DHT22;3406;49.902;8.596;2022-12-17T15:06:58;-3.30;87.90
6738;DHT22;3406;49.902;8.596;2022-12-17T15:09:26;-3.30;87.90
6738;DHT22;3406;49.902;8.596;2022-12-17T15:11:53;-3.40;87.80
6738;DHT22;3406;49.902;8.596;2022-12-17T15:14:19;-3.40;88.20
6738;DHT22;3406;49.902;8.596;2022-12-17T15:16:46;-3.40;88.30
6738;DHT22;3406;49.902;8.596;2022-12-17T15:19:13;-3.40;88.10
6738;DHT22;3406;49.902;8.596;2022-12-17T15:21:39;-3.50;88.10
6738;DHT22;3406;49.902;8.596;2022-12-17T15:24:10;-3.50;88.30
6738;DHT22;3406;49.902;8.596;2022-12-17T15:26:38;-3.40;88.60
6738;DHT22;3406;49.902;8.596;2022-12-17T15:29:05;-3.40;88.50
6738;DHT22;3406;49.902;8.596;2022-12-17T15:31:32;-3.30;88.60
6738;DHT22;3406;49.902;8.596;2022-12-17T15:33:59;-3.30;88.70
6738;DHT22;3406;49.902;8.596;2022-12-17T15:36:25;-3.30;88.60
6738;DHT22;3406;49.902;8.596;2022-12-17T15:38:52;-3.30;88.50
6738;DHT22;3406;49.902;8.596;2022-12-17T15:41:19;-3.30;88.60
6738;DHT22;3406;49.902;8.596;2022-12-17T15:44:04;-3.30;88.60
6738;DHT22;3406;49.902;8.596;2022-12-17T15:46:31;-3.30;88.60
6738;DHT22;3406;49.902;8.596;2022-12-17T15:48:58;-3.40;88.50
6738;DHT22;3406;49.902;8.596;2022-12-17T15:51:25;-3.40;88.60
6738;DHT22;3406;49.902;8.596;2022-12-17T15:53:52;-3.40;88.70
6738;DHT22;3406;49.902;8.596;2022-12-17T15:56:20;-3.40;88.70
6738;DHT22;3406;49.902;8.596;2022-12-17T15:58:47;-3.40;88.80
6738;DHT22;3406;49.902;8.596;2022-12-17T16:01:15;-3.40;89.00
6738;DHT22;3406;49.902;8.596;2022-12-17T16:03:42;-3.40;89.20
6738;DHT22;3406;49.902;8.596;2022-12-17T16:06:10;-3.40;89.20
6738;DHT22;3406;49.902;8.596;2022-12-17T16:08:37;-3.40;89.30
6738;DHT22;3406;49.902;8.596;2022-12-17T16:11:05;-3.30;90.00
6738;DHT22;3406;49.902;8.596;2022-12-17T16:13:33;-3.30;90.00
6738;DHT22;3406;49.902;8.596;2022-12-17T16:16:00;-3.30;90.20
6738;DHT22;3406;49.902;8.596;2022-12-17T16:18:28;-3.20;89.90
6738;DHT22;3406;49.902;8.596;2022-12-17T16:21:00;-3.20;89.80
6738;DHT22;3406;49.902;8.596;2022-12-17T16:23:27;-3.20;89.70
6738;DHT22;3406;49.902;8.596;2022-12-17T16:25:55;-3.30;89.40
6738;DHT22;3406;49.902;8.596;2022-12-17T16:28:22;-3.30;89.30
6738;DHT22;3406;49.902;8.596;2022-12-17T16:30:57;-3.40;89.30
6738;DHT22;3406;49.902;8.596;2022-12-17T16:33:24;-3.40;89.70
6738;DHT22;3406;49.902;8.596;2022-12-17T16:35:52;-3.40;89.80
6738;DHT22;3406;49.902;8.596;2022-12-17T16:38:19;-3.40;89.90
6738;DHT22;3406;49.902;8.596;2022-12-17T16:40:46;-3.40;89.70
6738;DHT22;3406;49.902;8.596;2022-12-17T16:43:13;-3.50;89.60
6738;DHT22;3406;49.902;8.596;2022-12-17T16:45:46;-3.60;89.40
6738;DHT22;3406;49.902;8.596;2022-12-17T16:48:13;-3.60;89.40
6738;DHT22;3406;49.902;8.596;2022-12-17T16:50:40;-3.60;89.60
6738;DHT22;3406;49.902;8.596;2022-12-17T16:53:08;-3.60;89.60
6738;DHT22;3406;49.902;8.596;2022-12-17T16:55:39;-3.70;89.60
6738;DHT22;3406;49.902;8.596;2022-12-17T16:58:06;-3.70;89.60
6738;DHT22;3406;49.902;8.596;2022-12-17T17:00:34;-3.70;89.50
6738;DHT22;3406;49.902;8.596;2022-12-17T17:03:00;-3.70;90.30
6738;DHT22;3406;49.902;8.596;2022-12-17T17:05:30;-3.60;90.30
6738;DHT22;3406;49.902;8.596;2022-12-17T17:07:56;-3.60;90.10
6738;DHT22;3406;49.902;8.596;2022-12-17T17:10:25;-3.60;90.00
6738;DHT22;3406;49.902;8.596;2022-12-17T17:12:52;-3.60;90.10
6738;DHT22;3406;49.902;8.596;2022-12-17T17:15:19;-3.60;90.10
6738;DHT22;3406;49.902;8.596;2022-12-17T17:17:47;-3.70;89.90
6738;DHT22;3406;49.902;8.596;2022-12-17T17:20:14;-3.70;89.70
6738;DHT22;3406;49.902;8.596;2022-12-17T17:22:42;-3.70;89.70
6738;DHT22;3406;49.902;8.596;2022-12-17T17:25:09;-3.70;89.80
6738;DHT22;3406;49.902;8.596;2022-12-17T17:27:37;-3.70;89.90
6738;DHT22;3406;49.902;8.596;2022-12-17T17:30:04;-3.70;89.90
6738;DHT22;3406;49.902;8.596;2022-12-17T17:32:31;-3.70;90.00
6738;DHT22;3406;49.902;8.596;2022-12-17T17:34:58;-3.70;89.90
6738;DHT22;3406;49.902;8.596;2022-12-17T17:37:24;-3.70;89.90
6738;DHT22;3406;49.902;8.596;2022-12-17T17:39:52;-3.80;89.70
6738;DHT22;3406;49.902;8.596;2022-12-17T17:42:18;-3.80;89.60
6738;DHT22;3406;49.902;8.596;2022-12-17T17:44:46;-3.90;89.50
6738;DHT22;3406;49.902;8.596;2022-12-17T17:47:14;-3.90;89.90
6738;DHT22;3406;49.902;8.596;2022-12-17T17:49:40;-3.90;89.90